WHISKEYTOWN DAM (USBR) (WHI)

Elevation: 1210' · SACRAMENTO R basin · Operator: US Bureau of Reclamation

Provisional data, subject to change.
Query executed Wednesday at 2:32:10

Select a sensor type for a plot of data.
Note: Reservoir Flows are daily averages.

Earlier

Date RES ELE    STORAGE    RES CHG    OUTFLOW    INFLOW    EVAP    RIV REL    PPT INC    RAIN    SPILL    DIS PWR   
 FEET   AF   AF   CFS   CFS   CFS   CFS   INCHES   INCHES   CFS   CFS  
11/08/2016 1200.50 211622 -539 272 3 3 241 0.00 12.78 0 31
11/09/2016 1199.97 210036 -1586 712 -86 2 241 0.00 12.78 0 471
11/10/2016 1199.39 208313 -1723 895 29 3 241 0.00 12.78 0 654
11/11/2016 1199.12 207511 -802 424 22 2 241 0.00 12.78 0 183
11/12/2016 1198.84 206684 -827 422 5 0 242 0.07 12.85 0 180
11/13/2016 1198.70 206271 -413 265 59 2 242 0.00 12.85 0 23
11/14/2016 1198.50 205682 -177 408 114 3 242 0.00 12.85 0 166
11/15/2016 1198.49 205653 -412 277 265 3 242 0.16 13.01 0 35
11/16/2016 1198.42 205446 -236 328 209 0 242 0.03 13.04 0 86
11/17/2016 1198.25 204946 -500 406 156 2 242 0.00 13.04 0 164
11/18/2016 1198.17 204710 -295 412 294 1 242 0.00 13.04 0 170
11/19/2016 1198.32 205152 501 435 658 0 242 2.18 15.22 0 193
11/20/2016 1198.72 206330 1178 376 970 0 241 1.23 16.45 0 135
11/21/2016 1199.02 207214 884 255 701 0 241 0.91 17.36 0 14
11/22/2016 1198.96 207037 -177 577 490 2 241 0.07 17.43 0 336
11/23/2016 1198.75 206419 -1502 753 441 0 242 0.79 18.22 0 511
11/24/2016 1198.87 206772 1237 480 659 1 242 0.00 18.22 0 238
11/25/2016 1198.87 206772 0 553 553 0 242 0.00 18.22 0 311
11/26/2016 1199.00 207155 383 413 606 0 242 0.59 18.81 0 171
11/27/2016 1199.00 207155 0 522 522 0 242 1.10 19.91 0 280
11/28/2016 1198.83 206654 -501 586 333 0 242 0.12 20.03 0 344
11/29/2016 1198.97 207067 0 256 464 0 242 0.15 20.18 0 14
11/30/2016 1199.01 207185 531 256 316 1 242 0.04 20.22 0 14
12/01/2016 1198.98 207096 -89 256 211 0 242 0.01 20.23 0 14
12/02/2016 1198.74 206389 -707 535 179 0 242 0.00 20.23 0 293
12/03/2016 1198.68 206212 -177 256 169 2 242 0.00 20.23 0 14
12/04/2016 1198.60 205977 -235 256 140 2 242 0.00 20.23 0 14
12/05/2016 1198.53 205770 -207 256 152 0 242 0.00 20.23 0 14
12/06/2016 -- -- -- -- -- -- -- -- -- -- --
12/07/2016 -- -- -- -- -- -- -- -- -- -- --

Later | Latest

Warning! This data is preliminary and subject to revision.

Show WHI Map | Plot WHI Data | 1 Month WHI Data | Real-Time WHI Data | WHI Info